Time;durP1;ratioP1;P1;durP2;ratioP2;P2;SDS_P1;SDS_P2;PMS_P1;PMS_P2;Temp;Humidity;BMP_temperature;BMP_pressure;BME280_temperature;BME280_humidity;BME280_pressure;Samples;Min_cycle;Max_cycle;Signal;HPM_P1;HPM_P2
2021/06/22 00:00:16;;;;;;;;;;;20.20;99.90;;;;;;5067381;28;20375;-58
2021/06/22 00:02:41;;;;;;;;;;;20.10;99.90;;;;;;5067781;28;20068;-58
2021/06/22 00:05:07;;;;;;;;;;;20.00;99.90;;;;;;5081947;28;20112;-58
2021/06/22 00:07:33;;;;;;;;;;;20.00;99.90;;;;;;5088637;28;19988;-58
2021/06/22 00:09:59;;;;;;;;;;;19.80;99.90;;;;;;5088180;28;20402;-58
2021/06/22 00:12:24;;;;;;;;;;;19.90;99.90;;;;;;5087913;28;20038;-58
2021/06/22 00:14:50;;;;;;;;;;;19.80;99.90;;;;;;5087807;28;20020;-58
2021/06/22 00:17:15;;;;;;;;;;;19.80;99.90;;;;;;5087580;28;19980;-58
2021/06/22 00:19:41;;;;;;;;;;;19.80;99.90;;;;;;5086909;28;19984;-58
2021/06/22 00:22:07;;;;;;;;;;;19.60;99.90;;;;;;5067390;28;19985;-58
2021/06/22 00:24:32;;;;;;;;;;;19.60;99.90;;;;;;5067617;28;19989;-57
2021/06/22 00:26:58;;;;;;;;;;;19.60;99.90;;;;;;5086260;28;20012;-58
2021/06/22 00:29:25;;;;;;;;;;;19.50;99.90;;;;;;5087505;28;20653;-58
2021/06/22 00:31:51;;;;;;;;;;;19.40;99.90;;;;;;5087906;28;19984;-58
2021/06/22 00:34:17;;;;;;;;;;;19.40;99.90;;;;;;5086974;28;19981;-58
2021/06/22 00:36:42;;;;;;;;;;;19.30;99.90;;;;;;5086682;28;20053;-58
2021/06/22 00:39:08;;;;;;;;;;;19.30;99.90;;;;;;5087741;28;19985;-57
2021/06/22 00:41:34;;;;;;;;;;;19.30;99.90;;;;;;5087578;28;20004;-58
2021/06/22 00:44:07;;;;;;;;;;;19.20;99.90;;;;;;5087018;28;20034;-58
2021/06/22 00:46:33;;;;;;;;;;;19.20;99.90;;;;;;5085869;28;20553;-58
2021/06/22 00:48:59;;;;;;;;;;;19.20;99.90;;;;;;5086819;28;20087;-58
2021/06/22 00:51:25;;;;;;;;;;;19.30;99.90;;;;;;5079004;28;20081;-58
2021/06/22 00:53:50;;;;;;;;;;;19.20;99.90;;;;;;5066135;28;20020;-58
2021/06/22 00:56:16;;;;;;;;;;;19.20;99.90;;;;;;5066227;28;20075;-58
2021/06/22 00:58:42;;;;;;;;;;;19.30;99.90;;;;;;5066529;28;19977;-58
2021/06/22 01:01:08;;;;;;;;;;;19.20;99.90;;;;;;5066865;28;20047;-58
2021/06/22 01:03:33;;;;;;;;;;;19.20;99.90;;;;;;5067282;28;20585;-58
2021/06/22 01:05:59;;;;;;;;;;;19.10;99.90;;;;;;5066473;28;20005;-58
2021/06/22 01:08:26;;;;;;;;;;;19.10;99.90;;;;;;5067092;28;20075;-58
2021/06/22 01:10:52;;;;;;;;;;;19.10;99.90;;;;;;5068138;28;19978;-58
2021/06/22 01:13:18;;;;;;;;;;;19.10;99.90;;;;;;5073218;28;19988;-58
2021/06/22 01:15:44;;;;;;;;;;;19.00;99.90;;;;;;5073719;28;19981;-58
2021/06/22 01:18:09;;;;;;;;;;;19.00;99.90;;;;;;5073915;28;19978;-58
2021/06/22 01:20:36;;;;;;;;;;;19.00;99.90;;;;;;5073481;28;19981;-58
2021/06/22 01:23:07;;;;;;;;;;;19.00;99.90;;;;;;5073218;28;19988;-58
2021/06/22 01:25:33;;;;;;;;;;;18.90;99.90;;;;;;5073641;28;20029;-58
2021/06/22 01:27:59;;;;;;;;;;;18.70;99.90;;;;;;5072953;28;20061;-57
2021/06/22 01:30:25;;;;;;;;;;;18.40;99.90;;;;;;5073379;28;20502;-57
2021/06/22 01:32:51;;;;;;;;;;;18.10;99.90;;;;;;5073400;28;20111;-57
2021/06/22 01:35:17;;;;;;;;;;;17.90;99.90;;;;;;5073070;28;20076;-59
2021/06/22 01:37:50;;;;;;;;;;;17.50;99.90;;;;;;5072537;28;19981;-59
2021/06/22 01:40:15;;;;;;;;;;;16.90;99.90;;;;;;5072892;28;19985;-58
2021/06/22 01:42:41;;;;;;;;;;;16.60;99.90;;;;;;5073365;28;19978;-59
2021/06/22 01:45:06;;;;;;;;;;;16.50;99.90;;;;;;5073428;28;20041;-58
2021/06/22 01:47:32;;;;;;;;;;;16.50;99.90;;;;;;5072951;28;19993;-59
2021/06/22 01:49:59;;;;;;;;;;;16.20;99.90;;;;;;5072586;28;19993;-59
2021/06/22 01:52:25;;;;;;;;;;;16.20;99.90;;;;;;5072954;28;19981;-58
2021/06/22 01:54:54;;;;;;;;;;;16.10;99.90;;;;;;5072589;28;19981;-58
2021/06/22 01:57:20;;;;;;;;;;;16.00;99.90;;;;;;5072853;28;19984;-59
2021/06/22 01:59:46;;;;;;;;;;;15.90;99.90;;;;;;5073135;28;20339;-59
2021/06/22 02:02:12;;;;;;;;;;;16.00;99.90;;;;;;5072688;28;20000;-60
2021/06/22 02:04:37;;;;;;;;;;;16.00;99.90;;;;;;5073388;28;19988;-59
2021/06/22 02:07:03;;;;;;;;;;;16.10;99.90;;;;;;5072933;28;20020;-59
2021/06/22 02:09:29;;;;;;;;;;;16.20;99.90;;;;;;5073116;28;20020;-59
2021/06/22 02:11:54;;;;;;;;;;;16.30;99.90;;;;;;5072884;28;19985;-59
2021/06/22 02:14:20;;;;;;;;;;;16.30;99.90;;;;;;5072692;28;19992;-60
2021/06/22 02:16:45;;;;;;;;;;;16.10;99.90;;;;;;5072441;28;20038;-60
2021/06/22 02:19:11;;;;;;;;;;;16.40;99.90;;;;;;5086382;28;19991;-59
2021/06/22 02:21:36;;;;;;;;;;;16.50;99.90;;;;;;5093342;28;19977;-60
2021/06/22 02:24:02;;;;;;;;;;;16.60;99.90;;;;;;5086994;28;19980;-61
2021/06/22 02:26:28;;;;;;;;;;;16.80;99.90;;;;;;5089645;28;20008;-60
2021/06/22 02:28:53;;;;;;;;;;;16.90;99.90;;;;;;5089899;28;19987;-61
2021/06/22 02:31:20;;;;;;;;;;;16.80;99.90;;;;;;5090366;28;19996;-61
2021/06/22 02:33:47;;;;;;;;;;;16.80;99.90;;;;;;5089081;28;19988;-61
2021/06/22 02:36:12;;;;;;;;;;;16.50;99.90;;;;;;5089323;28;19980;-60
2021/06/22 02:38:38;;;;;;;;;;;16.60;99.90;;;;;;5088899;28;20008;-60
2021/06/22 02:41:03;;;;;;;;;;;16.80;99.90;;;;;;5089308;28;19985;-61
2021/06/22 02:43:29;;;;;;;;;;;16.80;99.90;;;;;;5083691;28;19978;-61
2021/06/22 02:45:55;;;;;;;;;;;16.80;99.90;;;;;;5068635;28;20055;-61
2021/06/22 02:48:20;;;;;;;;;;;16.90;99.90;;;;;;5069697;28;19989;-61
2021/06/22 02:50:47;;;;;;;;;;;17.00;99.90;;;;;;5069666;28;19978;-60
2021/06/22 02:53:12;;;;;;;;;;;17.10;99.90;;;;;;5068424;28;20017;-60
2021/06/22 02:55:39;;;;;;;;;;;17.10;99.90;;;;;;5068567;28;20024;-61
2021/06/22 02:58:04;;;;;;;;;;;17.10;99.90;;;;;;5068740;28;19989;-61
2021/06/22 03:00:30;;;;;;;;;;;17.20;99.90;;;;;;5069142;28;20328;-61
2021/06/22 03:02:57;;;;;;;;;;;17.20;99.90;;;;;;5068642;28;20014;-61
2021/06/22 03:05:22;;;;;;;;;;;17.20;99.90;;;;;;5069489;28;20004;-61
2021/06/22 03:07:48;;;;;;;;;;;17.20;99.90;;;;;;5069724;28;19981;-60
2021/06/22 03:10:16;;;;;;;;;;;17.20;99.90;;;;;;5068541;28;19982;-60
2021/06/22 03:12:41;;;;;;;;;;;17.10;99.90;;;;;;5069113;28;19977;-61
2021/06/22 03:15:08;;;;;;;;;;;17.10;99.90;;;;;;5068518;28;19978;-61
2021/06/22 03:17:35;;;;;;;;;;;17.30;99.90;;;;;;5076579;28;20074;-61
2021/06/22 03:20:03;;;;;;;;;;;17.20;99.90;;;;;;5087426;28;19977;-61
2021/06/22 03:22:28;;;;;;;;;;;17.30;99.90;;;;;;5087473;28;19988;-61
2021/06/22 03:24:54;;;;;;;;;;;17.30;99.90;;;;;;5087195;28;19985;-61
2021/06/22 03:27:19;;;;;;;;;;;17.30;99.90;;;;;;5087003;28;20000;-61
2021/06/22 03:29:46;;;;;;;;;;;17.30;99.90;;;;;;5087580;28;20128;-61
2021/06/22 03:32:12;;;;;;;;;;;17.20;99.90;;;;;;5087016;28;19981;-61
2021/06/22 03:34:39;;;;;;;;;;;17.20;99.90;;;;;;5086052;28;20072;-62
2021/06/22 03:37:04;;;;;;;;;;;17.10;99.90;;;;;;5086682;28;19980;-62
2021/06/22 03:39:30;;;;;;;;;;;17.20;99.90;;;;;;5087125;28;20366;-62
2021/06/22 03:41:56;;;;;;;;;;;17.20;99.90;;;;;;5087034;28;19984;-62
2021/06/22 03:44:22;;;;;;;;;;;17.20;99.90;;;;;;5086673;28;19984;-62
2021/06/22 03:46:47;;;;;;;;;;;17.20;99.90;;;;;;5086941;28;20562;-62
2021/06/22 03:49:13;;;;;;;;;;;17.10;99.90;;;;;;5085420;28;20390;-62
2021/06/22 03:51:39;;;;;;;;;;;17.20;99.90;;;;;;5086359;28;19981;-62
2021/06/22 03:54:05;;;;;;;;;;;17.20;99.90;;;;;;5086532;28;19985;-62
2021/06/22 03:56:31;;;;;;;;;;;17.20;99.90;;;;;;5071937;28;19992;-62
2021/06/22 03:58:57;;;;;;;;;;;17.10;99.90;;;;;;5066243;28;20072;-62
2021/06/22 04:01:23;;;;;;;;;;;17.20;99.90;;;;;;5066955;28;19989;-62
2021/06/22 04:03:49;;;;;;;;;;;17.20;99.90;;;;;;5066997;28;19986;-62
2021/06/22 04:06:14;;;;;;;;;;;17.20;99.90;;;;;;5065917;28;20001;-62
2021/06/22 04:08:41;;;;;;;;;;;17.20;99.90;;;;;;5066324;28;19981;-62
2021/06/22 04:11:07;;;;;;;;;;;17.20;99.90;;;;;;5065723;28;20110;-62
2021/06/22 04:13:32;;;;;;;;;;;17.20;99.90;;;;;;5066162;28;20072;-62
2021/06/22 04:15:58;;;;;;;;;;;17.20;99.90;;;;;;5071561;28;20032;-62
2021/06/22 04:18:24;;;;;;;;;;;17.30;99.90;;;;;;5086705;28;20020;-62
2021/06/22 04:20:50;;;;;;;;;;;17.20;99.90;;;;;;5086145;28;19976;-62
2021/06/22 04:23:16;;;;;;;;;;;17.30;99.90;;;;;;5085668;28;20033;-62
2021/06/22 04:25:42;;;;;;;;;;;17.20;99.90;;;;;;5085968;28;20085;-62
2021/06/22 04:28:08;;;;;;;;;;;17.20;99.90;;;;;;5085856;28;20469;-62
2021/06/22 04:30:34;;;;;;;;;;;17.30;99.90;;;;;;5086761;28;20076;-62
2021/06/22 04:33:00;;;;;;;;;;;17.20;99.90;;;;;;5084684;28;20066;-62
2021/06/22 04:35:28;;;;;;;;;;;17.40;99.90;;;;;;5086421;28;20109;-62
2021/06/22 04:37:54;;;;;;;;;;;17.30;99.90;;;;;;5085872;28;19992;-62
2021/06/22 04:40:19;;;;;;;;;;;17.20;99.90;;;;;;5066990;28;19985;-62
2021/06/22 04:42:45;;;;;;;;;;;17.20;99.90;;;;;;5066070;28;19987;-62
2021/06/22 04:45:11;;;;;;;;;;;17.10;99.90;;;;;;5065398;28;19977;-62
2021/06/22 04:47:37;;;;;;;;;;;17.10;99.90;;;;;;5064812;28;19995;-62
2021/06/22 04:50:03;;;;;;;;;;;17.20;99.90;;;;;;5066227;28;20572;-62
2021/06/22 04:52:30;;;;;;;;;;;17.30;99.90;;;;;;5063816;28;20364;-62
2021/06/22 04:54:55;;;;;;;;;;;17.30;99.90;;;;;;5065156;28;19986;-62
2021/06/22 04:57:22;;;;;;;;;;;17.20;99.90;;;;;;5065568;28;19981;-62
2021/06/22 04:59:48;;;;;;;;;;;17.40;99.90;;;;;;5065660;28;20462;-62
2021/06/22 05:02:14;;;;;;;;;;;17.50;99.90;;;;;;5065204;28;20481;-62
2021/06/22 05:04:39;;;;;;;;;;;17.40;99.90;;;;;;5065539;28;19977;-62
2021/06/22 05:07:05;;;;;;;;;;;17.60;99.90;;;;;;5065663;28;20000;-62
2021/06/22 05:09:32;;;;;;;;;;;17.40;99.90;;;;;;5066210;28;19985;-62
2021/06/22 05:11:57;;;;;;;;;;;17.40;99.90;;;;;;5065133;28;20028;-62
2021/06/22 05:14:23;;;;;;;;;;;17.50;99.90;;;;;;5065418;28;20016;-62
2021/06/22 05:16:49;;;;;;;;;;;17.60;99.90;;;;;;5065734;28;19985;-62
2021/06/22 05:19:15;;;;;;;;;;;17.50;99.90;;;;;;5065027;28;20470;-62
2021/06/22 05:21:41;;;;;;;;;;;17.50;99.90;;;;;;5065515;28;20378;-62
2021/06/22 05:24:08;;;;;;;;;;;17.30;99.90;;;;;;5065096;28;19981;-62
2021/06/22 05:26:33;;;;;;;;;;;17.30;99.90;;;;;;5066592;28;20005;-62
2021/06/22 05:28:59;;;;;;;;;;;17.40;99.90;;;;;;5071109;28;20041;-62
2021/06/22 05:31:24;;;;;;;;;;;17.30;99.90;;;;;;5066622;28;19993;-62
2021/06/22 05:33:50;;;;;;;;;;;17.30;99.90;;;;;;5083802;28;20386;-61
2021/06/22 05:36:15;;;;;;;;;;;17.30;99.90;;;;;;5085381;28;20024;-62
2021/06/22 05:38:41;;;;;;;;;;;17.40;99.90;;;;;;5085992;28;19984;-61
2021/06/22 05:41:06;;;;;;;;;;;17.30;99.90;;;;;;5085003;28;19985;-61
2021/06/22 05:43:33;;;;;;;;;;;17.20;99.90;;;;;;5085913;28;19977;-60
2021/06/22 05:45:59;;;;;;;;;;;17.30;99.90;;;;;;5072630;28;20001;-60
2021/06/22 05:48:25;;;;;;;;;;;17.30;99.90;;;;;;5086260;28;20572;-61
2021/06/22 05:50:50;;;;;;;;;;;17.30;99.90;;;;;;5077561;28;20003;-60
2021/06/22 05:53:16;;;;;;;;;;;17.30;99.90;;;;;;5065513;28;20461;-60
2021/06/22 05:55:42;;;;;;;;;;;17.30;99.90;;;;;;5066498;28;20043;-60
2021/06/22 05:58:09;;;;;;;;;;;17.30;99.90;;;;;;5068301;28;20032;-60
2021/06/22 06:00:35;;;;;;;;;;;17.30;99.90;;;;;;5077333;28;19992;-60
2021/06/22 06:03:01;;;;;;;;;;;17.40;99.90;;;;;;5080461;28;19988;-60
2021/06/22 06:05:26;;;;;;;;;;;17.30;99.90;;;;;;5070044;28;20168;-60
2021/06/22 06:07:52;;;;;;;;;;;17.40;99.90;;;;;;5069926;28;20027;-60
2021/06/22 06:10:19;;;;;;;;;;;17.50;99.90;;;;;;5070227;28;19986;-60
2021/06/22 06:12:45;;;;;;;;;;;17.60;99.90;;;;;;5069459;28;20485;-60
2021/06/22 06:15:11;;;;;;;;;;;17.60;99.90;;;;;;5067647;28;19985;-60
2021/06/22 06:17:37;;;;;;;;;;;17.80;99.90;;;;;;5073877;28;19988;-60
2021/06/22 06:20:04;;;;;;;;;;;18.00;99.90;;;;;;5079671;28;19981;-60
2021/06/22 06:22:30;;;;;;;;;;;17.90;99.90;;;;;;5069631;28;19984;-60
2021/06/22 06:24:59;;;;;;;;;;;18.10;99.90;;;;;;5073266;28;19985;-60
2021/06/22 06:27:36;;;;;;;;;;;18.20;99.90;;;;;;5081481;28;19989;-60
2021/06/22 06:30:08;;;;;;;;;;;18.20;99.90;;;;;;5086397;28;20478;-60
2021/06/22 06:32:33;;;;;;;;;;;18.20;99.90;;;;;;5084978;28;19992;-58
2021/06/22 06:34:59;;;;;;;;;;;18.30;99.90;;;;;;5073160;28;19986;-59
2021/06/22 06:37:26;;;;;;;;;;;18.30;99.90;;;;;;5074886;28;20050;-59
2021/06/22 06:39:52;;;;;;;;;;;18.30;99.90;;;;;;5078957;28;19983;-59
2021/06/22 06:42:18;;;;;;;;;;;18.40;99.90;;;;;;5070516;28;19986;-59
2021/06/22 06:44:44;;;;;;;;;;;18.60;99.90;;;;;;5079255;28;20004;-59
2021/06/22 06:47:10;;;;;;;;;;;18.50;99.90;;;;;;5082850;28;20344;-60
2021/06/22 06:49:35;;;;;;;;;;;18.60;99.90;;;;;;5072899;28;19993;-60
2021/06/22 06:52:03;;;;;;;;;;;18.60;99.90;;;;;;5075851;28;19977;-60
2021/06/22 06:54:29;;;;;;;;;;;18.60;99.90;;;;;;5084606;28;19985;-60
2021/06/22 06:56:55;;;;;;;;;;;18.60;99.90;;;;;;5087562;28;19985;-60
2021/06/22 06:59:21;;;;;;;;;;;18.70;99.90;;;;;;5089328;28;19981;-60
2021/06/22 07:01:47;;;;;;;;;;;18.70;99.90;;;;;;5088926;28;20008;-60
2021/06/22 07:04:12;;;;;;;;;;;18.70;99.90;;;;;;5088575;28;19977;-60
2021/06/22 07:06:39;;;;;;;;;;;18.80;99.90;;;;;;5087772;28;20009;-60
2021/06/22 07:09:05;;;;;;;;;;;18.80;99.90;;;;;;5088572;28;19985;-60
2021/06/22 07:11:32;;;;;;;;;;;18.80;99.90;;;;;;5087566;28;19984;-60
2021/06/22 07:13:58;;;;;;;;;;;18.90;99.90;;;;;;5074040;28;20525;-60
2021/06/22 07:16:23;;;;;;;;;;;18.80;99.90;;;;;;5084479;28;20028;-60
2021/06/22 07:18:49;;;;;;;;;;;18.80;99.90;;;;;;5086360;28;19989;-60
2021/06/22 07:21:16;;;;;;;;;;;18.90;99.90;;;;;;5088567;28;20023;-60
2021/06/22 07:23:43;;;;;;;;;;;18.80;99.90;;;;;;5088723;28;19987;-59
2021/06/22 07:26:09;;;;;;;;;;;18.80;99.90;;;;;;5078333;28;20548;-60
2021/06/22 07:28:35;;;;;;;;;;;18.90;99.90;;;;;;5077923;28;19984;-60
2021/06/22 07:31:07;;;;;;;;;;;19.00;99.90;;;;;;5087448;28;19987;-60
2021/06/22 07:33:34;;;;;;;;;;;19.00;99.90;;;;;;5082313;28;20032;-60
2021/06/22 07:36:01;;;;;;;;;;;19.00;99.90;;;;;;5087261;28;20040;-60
2021/06/22 07:38:27;;;;;;;;;;;19.00;99.90;;;;;;5072516;28;19985;-60
2021/06/22 07:40:53;;;;;;;;;;;19.10;99.90;;;;;;5068426;28;19981;-60
2021/06/22 07:43:20;;;;;;;;;;;19.00;99.90;;;;;;5067501;28;20063;-60
2021/06/22 07:45:46;;;;;;;;;;;19.10;99.90;;;;;;5074160;28;20004;-60
2021/06/22 07:48:13;;;;;;;;;;;19.00;99.90;;;;;;5074725;28;20001;-60
2021/06/22 07:50:40;;;;;;;;;;;19.00;99.90;;;;;;5088196;28;19987;-60
2021/06/22 07:53:05;;;;;;;;;;;18.90;99.90;;;;;;5087973;28;20522;-60
2021/06/22 07:55:31;;;;;;;;;;;18.80;99.90;;;;;;5088025;28;20079;-60
2021/06/22 07:57:57;;;;;;;;;;;18.90;99.90;;;;;;5087737;28;19981;-60
2021/06/22 08:00:56;;;;;;;;;;;18.90;99.90;;;;;;5087523;28;20030;-59
2021/06/22 08:03:19;;;;;;;;;;;19.00;99.90;;;;;;5068595;28;19993;-59
2021/06/22 08:05:47;;;;;;;;;;;19.00;99.90;;;;;;5067604;28;20008;-60
2021/06/22 08:08:16;;;;;;;;;;;19.00;99.90;;;;;;5081776;28;20038;-60
2021/06/22 08:10:42;;;;;;;;;;;19.10;99.90;;;;;;5066869;28;19992;-60
2021/06/22 08:13:08;;;;;;;;;;;19.10;99.90;;;;;;5066353;28;20344;-60
2021/06/22 08:15:34;;;;;;;;;;;19.20;99.90;;;;;;5067996;28;19988;-60
2021/06/22 08:18:00;;;;;;;;;;;19.30;99.90;;;;;;5082827;28;19985;-60
2021/06/22 08:20:26;;;;;;;;;;;19.40;99.90;;;;;;5086516;28;20482;-60
2021/06/22 08:22:53;;;;;;;;;;;19.40;99.90;;;;;;5087347;28;20070;-60
2021/06/22 08:25:20;;;;;;;;;;;19.50;99.90;;;;;;5085373;28;19984;-60
2021/06/22 08:27:48;;;;;;;;;;;19.50;99.90;;;;;;5083727;28;19984;-60
2021/06/22 08:30:14;;;;;;;;;;;19.60;99.90;;;;;;5066667;28;20028;-60
2021/06/22 08:32:40;;;;;;;;;;;19.60;99.90;;;;;;5086298;28;20029;-59
2021/06/22 08:35:05;;;;;;;;;;;19.50;99.90;;;;;;5087655;28;20413;-59
2021/06/22 08:37:31;;;;;;;;;;;19.60;99.90;;;;;;5087415;28;20460;-59
2021/06/22 08:39:56;;;;;;;;;;;19.80;99.90;;;;;;5087015;28;20470;-60
2021/06/22 08:42:23;;;;;;;;;;;19.80;99.90;;;;;;5074011;28;19992;-60
2021/06/22 08:44:50;;;;;;;;;;;19.70;99.90;;;;;;5086163;28;20021;-60
2021/06/22 08:47:23;;;;;;;;;;;19.80;99.90;;;;;;5070507;28;20019;-60
2021/06/22 08:49:52;;;;;;;;;;;19.80;99.90;;;;;;5066889;28;20461;-60
2021/06/22 08:52:25;;;;;;;;;;;19.80;99.90;;;;;;5064690;28;19981;-59
2021/06/22 08:54:53;;;;;;;;;;;19.90;99.90;;;;;;5071367;28;19988;-60
2021/06/22 08:57:22;;;;;;;;;;;19.80;99.90;;;;;;5086643;28;19985;-60
2021/06/22 08:59:50;;;;;;;;;;;20.00;99.90;;;;;;5086959;28;19977;-60
2021/06/22 09:02:16;;;;;;;;;;;20.20;99.90;;;;;;5086659;28;19985;-60
2021/06/22 09:04:42;;;;;;;;;;;20.30;99.90;;;;;;5085597;28;20558;-61
2021/06/22 09:07:08;;;;;;;;;;;20.30;99.90;;;;;;5067882;28;20004;-61
2021/06/22 09:09:36;;;;;;;;;;;20.30;99.90;;;;;;5071903;28;20042;-60
2021/06/22 09:12:05;;;;;;;;;;;20.20;99.90;;;;;;5073798;28;19982;-60
2021/06/22 09:14:41;;;;;;;;;;;20.20;99.90;;;;;;5066530;28;20459;-60
2021/06/22 09:17:08;;;;;;;;;;;20.20;99.90;;;;;;5073218;28;20430;-60
2021/06/22 09:19:34;;;;;;;;;;;20.20;99.90;;;;;;5087472;28;20481;-60
2021/06/22 09:22:13;;;;;;;;;;;20.40;99.90;;;;;;5086232;28;20027;-60
2021/06/22 09:24:59;;;;;;;;;;;20.50;99.90;;;;;;5086629;28;19984;-60
2021/06/22 09:27:43;;;;;;;;;;;20.70;99.90;;;;;;5086681;28;20009;-60
2021/06/22 09:30:09;;;;;;;;;;;20.60;99.90;;;;;;5066182;28;19977;-60
2021/06/22 09:32:35;;;;;;;;;;;20.70;99.90;;;;;;5068621;28;20000;-60
2021/06/22 09:35:17;;;;;;;;;;;20.60;99.90;;;;;;5070225;28;20008;-60
2021/06/22 09:37:53;;;;;;;;;;;20.50;99.90;;;;;;5070646;28;19978;-60
2021/06/22 09:40:26;;;;;;;;;;;20.40;99.90;;;;;;5071570;28;20004;-60
2021/06/22 09:42:56;;;;;;;;;;;20.30;99.90;;;;;;5090764;28;19981;-60
2021/06/22 09:45:22;;;;;;;;;;;20.20;99.90;;;;;;5082258;28;19985;-60
2021/06/22 09:47:48;;;;;;;;;;;20.40;99.90;;;;;;5067705;28;20050;-60
2021/06/22 09:50:40;;;;;;;;;;;20.60;99.90;;;;;;5076623;28;20160;-60
2021/06/22 09:53:21;;;;;;;;;;;20.80;99.90;;;;;;5089589;28;20571;-60
2021/06/22 09:55:48;;;;;;;;;;;20.70;99.90;;;;;;5082527;28;20129;-60
2021/06/22 09:58:14;;;;;;;;;;;20.50;99.90;;;;;;5076109;28;19989;-60
2021/06/22 10:00:39;;;;;;;;;;;20.50;99.90;;;;;;5071391;28;20470;-60
2021/06/22 10:03:06;;;;;;;;;;;20.50;99.90;;;;;;5070373;28;19985;-60
2021/06/22 10:05:54;;;;;;;;;;;20.70;99.90;;;;;;5070099;28;20360;-59
2021/06/22 10:08:21;;;;;;;;;;;21.00;99.90;;;;;;5069839;28;19982;-60
2021/06/22 10:10:47;;;;;;;;;;;21.20;99.90;;;;;;5075622;28;19985;-60
2021/06/22 10:13:33;;;;;;;;;;;21.30;99.90;;;;;;5089472;28;20121;-60
2021/06/22 10:16:17;;;;;;;;;;;21.20;99.90;;;;;;5089046;28;20454;-60
2021/06/22 10:18:43;;;;;;;;;;;21.20;99.90;;;;;;5079046;28;19981;-59
2021/06/22 10:21:09;;;;;;;;;;;21.10;99.90;;;;;;5101415;28;19992;-59
2021/06/22 10:23:34;;;;;;;;;;;21.00;99.90;;;;;;5111891;28;19984;-59
2021/06/22 10:26:00;;;;;;;;;;;20.70;99.90;;;;;;5110793;28;20006;-59
2021/06/22 10:28:25;;;;;;;;;;;20.90;99.90;;;;;;5092349;28;19989;-59
2021/06/22 10:30:51;;;;;;;;;;;21.10;99.90;;;;;;5090077;28;20091;-59
2021/06/22 10:33:18;;;;;;;;;;;21.00;99.90;;;;;;5090588;28;19981;-59
2021/06/22 10:35:44;;;;;;;;;;;21.20;99.90;;;;;;5090765;28;20030;-59
2021/06/22 10:38:10;;;;;;;;;;;21.30;99.90;;;;;;5090490;28;20415;-59
2021/06/22 10:40:36;;;;;;;;;;;21.40;99.90;;;;;;5091056;28;20067;-59
2021/06/22 10:43:03;;;;;;;;;;;21.30;99.90;;;;;;5089708;28;20515;-59
2021/06/22 10:45:29;;;;;;;;;;;21.40;99.90;;;;;;5084784;28;20054;-59
2021/06/22 10:47:56;;;;;;;;;;;21.60;99.90;;;;;;5078746;28;20413;-59
2021/06/22 10:50:22;;;;;;;;;;;21.60;99.90;;;;;;5075183;28;19989;-59
2021/06/22 10:52:53;;;;;;;;;;;21.70;99.90;;;;;;5075092;28;20010;-59
2021/06/22 10:55:22;;;;;;;;;;;21.90;99.90;;;;;;5072299;28;20446;-59
2021/06/22 10:57:59;;;;;;;;;;;22.00;99.90;;;;;;5095305;28;19989;-60
2021/06/22 11:00:29;;;;;;;;;;;22.20;99.90;;;;;;5087023;28;19980;-59
2021/06/22 11:03:06;;;;;;;;;;;22.40;99.90;;;;;;5069214;28;19989;-59
2021/06/22 11:05:34;;;;;;;;;;;22.40;99.90;;;;;;5069132;28;20091;-59
2021/06/22 11:08:12;;;;;;;;;;;22.20;99.90;;;;;;5068651;28;20087;-59
2021/06/22 11:10:39;;;;;;;;;;;22.10;99.90;;;;;;5067355;28;19988;-59
2021/06/22 11:13:05;;;;;;;;;;;22.30;99.90;;;;;;5068011;28;19987;-59
2021/06/22 11:15:51;;;;;;;;;;;22.20;99.90;;;;;;5067610;28;19985;-59
2021/06/22 11:18:18;;;;;;;;;;;22.10;99.90;;;;;;5066803;28;19995;-59
2021/06/22 11:20:58;;;;;;;;;;;21.90;99.90;;;;;;5067455;28;19985;-59
2021/06/22 11:23:24;;;;;;;;;;;21.80;99.90;;;;;;5067177;28;19985;-59
2021/06/22 11:25:50;;;;;;;;;;;22.00;99.90;;;;;;5067387;28;19998;-60
2021/06/22 11:28:17;;;;;;;;;;;22.40;99.90;;;;;;5066721;28;19986;-59
2021/06/22 11:30:59;;;;;;;;;;;22.40;99.90;;;;;;5067197;28;19977;-57
2021/06/22 11:33:32;;;;;;;;;;;22.50;99.90;;;;;;5067184;28;19992;-56
2021/06/22 11:36:16;;;;;;;;;;;22.60;99.90;;;;;;5066681;28;20542;-56
2021/06/22 11:38:42;;;;;;;;;;;23.10;99.90;;;;;;5067115;28;19977;-56
2021/06/22 11:41:12;;;;;;;;;;;23.10;99.90;;;;;;5066680;28;19984;-57
2021/06/22 11:43:37;;;;;;;;;;;23.30;99.90;;;;;;5066978;28;19986;-57
2021/06/22 11:46:22;;;;;;;;;;;23.40;99.90;;;;;;5067426;28;20008;-57
2021/06/22 11:49:00;;;;;;;;;;;23.50;99.90;;;;;;5066637;28;20533;-56
2021/06/22 11:51:44;;;;;;;;;;;23.60;99.90;;;;;;5066996;28;19992;-57
2021/06/22 11:54:10;;;;;;;;;;;23.50;99.90;;;;;;5066585;28;19989;-57
2021/06/22 11:56:36;;;;;;;;;;;23.80;99.90;;;;;;5066816;28;20034;-57
2021/06/22 11:59:03;;;;;;;;;;;24.20;99.90;;;;;;5066426;28;20020;-57
2021/06/22 12:01:29;;;;;;;;;;;24.30;99.90;;;;;;5066472;28;19989;-57
2021/06/22 12:03:55;;;;;;;;;;;24.50;99.90;;;;;;5066742;28;20017;-57
2021/06/22 12:06:21;;;;;;;;;;;24.80;99.90;;;;;;5066421;28;20047;-57
2021/06/22 12:08:47;;;;;;;;;;;25.00;99.90;;;;;;5066740;28;20124;-57
2021/06/22 12:11:26;;;;;;;;;;;25.10;99.90;;;;;;5065955;28;19989;-57
2021/06/22 12:13:53;;;;;;;;;;;25.10;99.90;;;;;;5066034;28;19981;-57
2021/06/22 12:16:23;;;;;;;;;;;25.50;99.90;;;;;;5066242;28;19977;-57
2021/06/22 12:18:49;;;;;;;;;;;25.40;99.90;;;;;;5066201;28;20019;-57
2021/06/22 12:21:16;;;;;;;;;;;25.50;99.90;;;;;;5065958;28;20462;-57
2021/06/22 12:23:42;;;;;;;;;;;25.40;99.90;;;;;;5066105;28;19977;-57
2021/06/22 12:26:09;;;;;;;;;;;25.60;99.90;;;;;;5065920;28;20001;-56
2021/06/22 12:28:36;;;;;;;;;;;25.60;99.90;;;;;;5066094;28;20000;-57
2021/06/22 12:31:03;;;;;;;;;;;25.30;99.90;;;;;;5066008;28;20313;-57
2021/06/22 12:33:30;;;;;;;;;;;25.30;99.90;;;;;;5065539;28;19977;-57
2021/06/22 12:36:02;;;;;;;;;;;25.20;99.90;;;;;;5065640;28;19989;-56
2021/06/22 12:38:29;;;;;;;;;;;25.10;99.90;;;;;;5066124;28;19986;-56
2021/06/22 12:40:57;;;;;;;;;;;25.30;99.90;;;;;;5065820;28;19985;-56
2021/06/22 12:43:37;;;;;;;;;;;25.40;99.90;;;;;;5065723;28;19978;-56
2021/06/22 12:46:03;;;;;;;;;;;25.30;99.90;;;;;;5066198;28;20012;-56
2021/06/22 12:48:29;;;;;;;;;;;25.30;99.90;;;;;;5065743;28;19989;-56
2021/06/22 12:50:55;;;;;;;;;;;25.30;99.90;;;;;;5064206;28;20007;-56
2021/06/22 12:53:21;;;;;;;;;;;25.40;99.90;;;;;;5065286;28;20314;-56
2021/06/22 12:55:50;;;;;;;;;;;25.50;99.90;;;;;;5065426;28;20017;-56
2021/06/22 12:58:16;;;;;;;;;;;25.70;99.90;;;;;;5065163;28;20043;-56
2021/06/22 13:00:45;;;;;;;;;;;25.90;99.90;;;;;;5065644;28;20038;-57
2021/06/22 13:03:15;;;;;;;;;;;26.20;99.90;;;;;;5065706;28;20004;-56
2021/06/22 13:05:43;;;;;;;;;;;26.40;99.90;;;;;;5065668;28;20051;-56
2021/06/22 13:08:19;;;;;;;;;;;26.50;99.90;;;;;;5064871;28;20425;-57
2021/06/22 13:10:49;;;;;;;;;;;26.40;99.90;;;;;;5065718;28;19981;-56
2021/06/22 13:13:28;;;;;;;;;;;25.70;99.90;;;;;;5065207;28;19985;-56
2021/06/22 13:16:09;;;;;;;;;;;25.80;99.90;;;;;;5065625;28;20379;-56
2021/06/22 13:19:13;;;;;;;;;;;25.70;99.90;;;;;;5065940;28;19980;-56
2021/06/22 13:21:40;;;;;;;;;;;26.20;99.90;;;;;;5082967;28;20432;-56
2021/06/22 13:24:06;;;;;;;;;;;26.50;99.90;;;;;;5083123;28;20236;-56
2021/06/22 13:26:32;;;;;;;;;;;26.30;99.90;;;;;;5074624;28;20009;-56
2021/06/22 13:29:00;;;;;;;;;;;26.00;99.90;;;;;;5063813;28;19985;-56
2021/06/22 13:31:26;;;;;;;;;;;25.90;99.90;;;;;;5065498;28;20379;-56
2021/06/22 13:34:09;;;;;;;;;;;26.30;99.90;;;;;;5065003;28;20012;-56
2021/06/22 13:36:40;;;;;;;;;;;26.40;99.90;;;;;;5066060;28;19988;-56
2021/06/22 13:39:07;;;;;;;;;;;26.70;99.90;;;;;;5065614;28;19990;-56
2021/06/22 13:41:52;;;;;;;;;;;27.00;99.90;;;;;;5064039;28;20383;-56
2021/06/22 13:44:36;;;;;;;;;;;27.10;99.90;;;;;;5065042;28;19984;-56
2021/06/22 13:47:04;;;;;;;;;;;27.30;99.90;;;;;;5063404;28;20070;-56
2021/06/22 13:49:35;;;;;;;;;;;27.50;99.90;;;;;;5065323;28;19989;-56
2021/06/22 13:52:00;;;;;;;;;;;27.50;99.90;;;;;;5064259;28;19982;-56
2021/06/22 13:54:27;;;;;;;;;;;27.70;99.90;;;;;;5064873;28;19984;-56
2021/06/22 13:56:52;;;;;;;;;;;27.80;99.90;;;;;;5064873;28;20432;-56
2021/06/22 13:59:19;;;;;;;;;;;27.90;99.90;;;;;;5064819;28;19982;-56
2021/06/22 14:01:45;;;;;;;;;;;28.00;99.90;;;;;;5065019;28;20073;-56
2021/06/22 14:04:11;;;;;;;;;;;28.00;99.90;;;;;;5065123;28;20059;-56
2021/06/22 14:06:37;;;;;;;;;;;28.20;99.90;;;;;;5065645;28;19997;-56
2021/06/22 14:09:03;;;;;;;;;;;28.20;99.90;;;;;;5064733;28;20635;-56
2021/06/22 14:11:29;;;;;;;;;;;28.30;99.90;;;;;;5064741;28;20332;-56
2021/06/22 14:13:58;;;;;;;;;;;28.40;99.90;;;;;;5064972;28;19988;-56
2021/06/22 14:16:25;;;;;;;;;;;28.40;99.90;;;;;;5065020;28;19989;-56
2021/06/22 14:18:51;;;;;;;;;;;28.10;99.90;;;;;;5066705;28;19977;-56